Time;durP1;ratioP1;P1;durP2;ratioP2;P2;SDS_P1;SDS_P2;PMS_P1;PMS_P2;Temp;Humidity;BMP_temperature;BMP_pressure;BME280_temperature;BME280_humidity;BME280_pressure;Samples;Min_cycle;Max_cycle;Signal;HPM_P1;HPM_P2
2024/01/06 00:02:00;;;;;;;15.48;8.18;;;19.50;64.10;;;;;;5132037;27;20020;-50
2024/01/06 00:04:26;;;;;;;14.13;7.93;;;19.50;63.50;;;;;;5128980;27;20050;-46
2024/01/06 00:06:52;;;;;;;14.10;8.05;;;19.60;63.70;;;;;;5131087;27;20397;-48
2024/01/06 00:09:18;;;;;;;14.65;7.90;;;19.50;63.60;;;;;;5132725;27;20031;-45
2024/01/06 00:11:43;;;;;;;15.38;8.05;;;19.50;63.00;;;;;;5132334;27;20034;-46
2024/01/06 00:14:09;;;;;;;15.18;8.13;;;19.50;63.50;;;;;;5128871;27;20027;-47
2024/01/06 00:16:35;;;;;;;15.93;8.00;;;19.50;63.50;;;;;;5131073;27;20034;-51
2024/01/06 00:19:02;;;;;;;15.70;8.05;;;19.50;64.30;;;;;;5132254;27;20039;-45
2024/01/06 00:21:28;;;;;;;14.48;8.27;;;19.50;64.10;;;;;;5130808;27;20031;-45
2024/01/06 00:23:55;;;;;;;12.23;6.97;;;19.50;64.00;;;;;;5132083;27;20034;-48
2024/01/06 00:26:22;;;;;;;15.20;8.00;;;19.50;64.10;;;;;;5131748;27;20031;-55
2024/01/06 00:28:51;;;;;;;14.38;8.15;;;19.50;64.00;;;;;;5132066;27;20498;-47
2024/01/06 00:31:17;;;;;;;18.53;8.57;;;19.50;64.20;;;;;;5132098;27;20382;-46
2024/01/06 00:33:43;;;;;;;14.82;8.50;;;19.50;63.90;;;;;;5131782;27;20027;-45
2024/01/06 00:36:09;;;;;;;14.43;8.52;;;19.50;63.30;;;;;;5127536;27;20027;-45
2024/01/06 00:38:35;;;;;;;15.85;8.80;;;19.50;63.40;;;;;;5132092;27;20027;-51
2024/01/06 00:41:01;;;;;;;13.73;7.93;;;19.50;63.00;;;;;;5131424;27;20027;-46
2024/01/06 00:43:27;;;;;;;12.05;7.18;;;19.50;63.10;;;;;;5131802;27;20027;-47
2024/01/06 00:45:53;;;;;;;14.88;7.85;;;19.50;63.10;;;;;;5131614;27;20077;-46
2024/01/06 00:48:18;;;;;;;11.68;7.63;;;19.50;63.00;;;;;;5126067;27;20023;-46
2024/01/06 00:50:44;;;;;;;15.70;7.78;;;19.50;63.00;;;;;;5129441;27;20058;-45
2024/01/06 00:53:11;;;;;;;16.45;8.35;;;19.50;62.50;;;;;;5128477;27;20083;-45
2024/01/06 00:55:37;;;;;;;13.20;7.57;;;19.50;62.60;;;;;;5129624;27;20052;-50
2024/01/06 00:58:03;;;;;;;14.80;7.63;;;19.50;63.10;;;;;;5127694;27;20031;-46
2024/01/06 01:00:29;;;;;;;13.93;8.32;;;19.50;63.80;;;;;;5121074;27;20047;-45
2024/01/06 01:02:54;;;;;;;14.15;7.68;;;19.50;62.70;;;;;;5116878;27;20020;-45
2024/01/06 01:05:20;;;;;;;13.88;7.75;;;19.50;63.60;;;;;;5115425;27;20027;-45
2024/01/06 01:07:46;;;;;;;11.20;7.30;;;19.50;62.90;;;;;;5128694;27;20482;-46
2024/01/06 01:10:12;;;;;;;13.68;8.10;;;19.50;63.00;;;;;;5128279;27;20034;-46
2024/01/06 01:12:39;;;;;;;13.75;7.75;;;19.50;62.50;;;;;;5130822;27;20027;-51
2024/01/06 01:15:05;;;;;;;14.75;7.63;;;19.50;62.60;;;;;;5125531;27;20024;-47
2024/01/06 01:17:31;;;;;;;12.02;7.05;;;19.50;62.80;;;;;;5119200;27;20084;-46
2024/01/06 01:19:56;;;;;;;18.20;7.85;;;19.50;62.60;;;;;;5115696;27;20050;-50
2024/01/06 01:22:22;;;;;;;14.10;7.65;;;19.50;62.70;;;;;;5117526;27;20447;-45
2024/01/06 01:24:48;;;;;;;19.38;7.68;;;19.50;62.70;;;;;;5114783;27;20027;-48
2024/01/06 01:27:14;;;;;;;17.20;8.05;;;19.50;62.80;;;;;;5117132;27;20026;-49
2024/01/06 01:29:39;;;;;;;13.80;7.43;;;19.50;62.70;;;;;;5131441;27;20057;-47
2024/01/06 01:32:06;;;;;;;15.10;7.68;;;19.50;62.50;;;;;;5125067;27;20034;-47
2024/01/06 01:34:31;;;;;;;14.77;7.00;;;19.50;63.00;;;;;;5122744;27;20077;-45
2024/01/06 01:36:57;;;;;;;15.60;8.27;;;19.50;63.20;;;;;;5112665;27;20023;-46
2024/01/06 01:39:23;;;;;;;17.42;7.60;;;19.40;63.30;;;;;;5115393;27;20030;-46
2024/01/06 01:41:49;;;;;;;14.70;7.53;;;19.50;63.20;;;;;;5132691;27;20131;-45
2024/01/06 01:44:16;;;;;;;13.50;7.70;;;19.50;63.30;;;;;;5132674;27;20031;-46
2024/01/06 01:46:42;;;;;;;17.45;7.95;;;19.50;63.20;;;;;;5130591;27;20054;-47
2024/01/06 01:49:08;;;;;;;16.30;7.75;;;19.50;63.10;;;;;;5132597;27;20111;-45
2024/01/06 01:51:35;;;;;;;17.65;8.05;;;19.50;63.00;;;;;;5132285;27;20041;-45
2024/01/06 01:54:06;;;;;;;13.80;7.93;;;19.50;63.00;;;;;;5132976;27;20027;-51
2024/01/06 01:56:36;;;;;;;12.68;7.60;;;19.40;62.90;;;;;;5132819;27;20108;-52
2024/01/06 01:59:09;;;;;;;12.55;7.43;;;19.50;62.60;;;;;;5132462;27;20486;-52
2024/01/06 02:01:35;;;;;;;15.95;8.27;;;19.50;62.90;;;;;;5132219;27;20030;-45
2024/01/06 02:04:01;;;;;;;13.93;8.00;;;19.40;62.90;;;;;;5130310;27;20118;-50
2024/01/06 02:06:27;;;;;;;23.88;8.32;;;19.50;62.80;;;;;;5132091;27;20098;-46
2024/01/06 02:08:53;;;;;;;13.13;6.80;;;19.50;62.70;;;;;;5125224;27;20027;-51
2024/01/06 02:11:19;;;;;;;17.83;7.45;;;19.40;63.00;;;;;;5131819;27;20423;-46
2024/01/06 02:13:45;;;;;;;16.88;7.13;;;19.40;63.20;;;;;;5132285;27;20065;-51
2024/01/06 02:16:10;;;;;;;18.85;7.82;;;19.40;63.30;;;;;;5132285;27;20472;-50
2024/01/06 02:18:36;;;;;;;13.27;6.97;;;19.40;63.00;;;;;;5132403;27;20087;-45
2024/01/06 02:21:02;;;;;;;11.90;6.72;;;19.40;62.70;;;;;;5129633;27;20062;-47
2024/01/06 02:23:29;;;;;;;14.18;7.15;;;19.40;62.90;;;;;;5129222;27;20022;-45
2024/01/06 02:25:55;;;;;;;14.75;7.95;;;19.40;62.60;;;;;;5130452;27;20015;-49
2024/01/06 02:28:21;;;;;;;12.18;7.20;;;19.40;62.60;;;;;;5124684;28;20051;-49
2024/01/06 02:30:47;;;;;;;14.05;7.60;;;19.50;62.90;;;;;;5120610;28;20061;-45
2024/01/06 02:33:13;;;;;;;12.27;7.05;;;19.40;63.20;;;;;;5126515;28;20110;-46
2024/01/06 02:35:40;;;;;;;17.15;7.80;;;19.40;63.20;;;;;;5121359;27;20022;-46
2024/01/06 02:38:06;;;;;;;15.85;7.00;;;19.40;63.30;;;;;;5129465;28;20447;-45
2024/01/06 02:40:32;;;;;;;15.23;7.22;;;19.40;63.80;;;;;;5118172;27;20453;-47
2024/01/06 02:42:59;;;;;;;13.77;7.05;;;19.40;63.40;;;;;;5118394;28;20059;-45
2024/01/06 02:45:25;;;;;;;14.63;7.68;;;19.30;63.50;;;;;;5131484;28;20027;-45
2024/01/06 02:47:51;;;;;;;14.38;7.13;;;19.30;63.10;;;;;;5125063;27;20161;-47
2024/01/06 02:50:17;;;;;;;14.57;7.82;;;19.40;63.70;;;;;;5128356;27;20023;-48
2024/01/06 02:52:43;;;;;;;15.88;7.40;;;19.40;63.40;;;;;;5123077;27;20163;-45
2024/01/06 02:55:09;;;;;;;13.90;7.32;;;19.30;63.50;;;;;;5131170;27;20023;-46
2024/01/06 02:57:37;;;;;;;15.00;7.25;;;19.30;63.40;;;;;;5106196;28;20046;-48
2024/01/06 03:00:03;;;;;;;13.25;7.35;;;19.30;63.60;;;;;;5124046;28;20108;-48
2024/01/06 03:02:29;;;;;;;14.43;7.90;;;19.30;63.70;;;;;;5126828;27;20028;-45
2024/01/06 03:04:55;;;;;;;15.43;7.30;;;19.30;63.40;;;;;;5129988;27;20022;-46
2024/01/06 03:07:21;;;;;;;14.05;7.50;;;19.30;63.60;;;;;;5122922;27;20114;-45
2024/01/06 03:09:46;;;;;;;12.70;7.07;;;19.30;63.70;;;;;;5121814;28;20499;-46
2024/01/06 03:12:12;;;;;;;17.17;7.65;;;19.30;63.50;;;;;;5124157;27;20036;-49
2024/01/06 03:14:38;;;;;;;13.15;7.15;;;19.30;63.50;;;;;;5131102;27;20022;-46
2024/01/06 03:17:04;;;;;;;15.00;7.90;;;19.30;63.60;;;;;;5130062;28;20403;-46
2024/01/06 03:19:33;;;;;;;13.38;6.80;;;19.30;64.20;;;;;;5131175;27;20016;-45
2024/01/06 03:21:58;;;;;;;13.32;7.20;;;19.30;63.40;;;;;;5125679;28;20023;-46
2024/01/06 03:24:25;;;;;;;13.60;7.18;;;19.30;63.40;;;;;;5126031;28;20088;-45
2024/01/06 03:26:51;;;;;;;14.82;7.50;;;19.30;63.20;;;;;;5118421;28;20047;-45
2024/01/06 03:29:17;;;;;;;12.77;6.93;;;19.30;63.50;;;;;;5126194;28;20162;-46
2024/01/06 03:31:46;;;;;;;13.00;7.20;;;19.30;63.80;;;;;;5118746;28;20046;-45
2024/01/06 03:34:13;;;;;;;11.30;7.13;;;19.30;63.40;;;;;;5129026;27;20031;-45
2024/01/06 03:36:39;;;;;;;12.25;7.18;;;19.30;63.80;;;;;;5129664;27;20019;-45
2024/01/06 03:39:06;;;;;;;11.50;6.82;;;19.30;63.20;;;;;;5131053;27;20256;-49
2024/01/06 03:41:31;;;;;;;12.85;7.25;;;19.30;63.50;;;;;;5130088;27;20446;-48
2024/01/06 03:43:58;;;;;;;13.50;7.50;;;19.30;62.90;;;;;;5118574;27;20047;-48
2024/01/06 03:46:23;;;;;;;11.65;7.38;;;19.30;62.60;;;;;;5133422;27;20023;-46
2024/01/06 03:48:49;;;;;;;11.85;7.20;;;19.30;62.60;;;;;;5132870;27;20412;-48
2024/01/06 03:51:15;;;;;;;13.68;7.18;;;19.30;62.80;;;;;;5127572;27;20030;-51
2024/01/06 03:53:41;;;;;;;13.80;7.95;;;19.30;62.60;;;;;;5127703;27;20031;-49
2024/01/06 03:56:07;;;;;;;16.27;6.78;;;19.30;62.70;;;;;;5134195;27;20042;-46
2024/01/06 03:58:33;;;;;;;11.05;6.53;;;19.30;63.10;;;;;;5133236;27;20113;-47
2024/01/06 04:00:59;;;;;;;13.50;7.28;;;19.30;63.00;;;;;;5120263;27;20031;-46
2024/01/06 04:03:25;;;;;;;12.88;7.45;;;19.30;62.80;;;;;;5125995;27;20022;-46
2024/01/06 04:05:50;;;;;;;13.10;7.22;;;19.30;62.90;;;;;;5133005;27;20482;-49
2024/01/06 04:08:17;;;;;;;14.25;7.00;;;19.30;62.90;;;;;;5134806;27;20027;-46
2024/01/06 04:10:43;;;;;;;13.73;7.72;;;19.30;63.10;;;;;;5133067;27;20031;-46
2024/01/06 04:13:11;;;;;;;13.40;7.45;;;19.30;62.90;;;;;;5134040;27;20027;-47
2024/01/06 04:15:37;;;;;;;11.40;6.90;;;19.30;62.60;;;;;;5134015;27;20072;-48
2024/01/06 04:18:04;;;;;;;13.18;7.15;;;19.30;62.70;;;;;;5134012;27;20027;-47
2024/01/06 04:20:30;;;;;;;11.98;6.90;;;19.30;62.90;;;;;;5122943;27;20026;-52
2024/01/06 04:22:56;;;;;;;12.55;7.00;;;19.30;62.60;;;;;;5131018;27;20019;-56
2024/01/06 04:25:22;;;;;;;12.52;6.68;;;19.30;62.80;;;;;;5132783;27;20180;-49
2024/01/06 04:27:48;;;;;;;14.77;7.75;;;19.30;62.40;;;;;;5131927;27;20031;-46
2024/01/06 04:30:15;;;;;;;11.32;7.00;;;19.30;62.50;;;;;;5124156;27;20038;-49
2024/01/06 04:32:41;;;;;;;11.95;6.78;;;19.30;62.80;;;;;;5113092;28;20027;-47
2024/01/06 04:35:07;;;;;;;11.95;7.38;;;19.30;62.90;;;;;;5122629;27;20479;-46
2024/01/06 04:37:33;;;;;;;40.08;7.97;;;19.30;62.90;;;;;;5134088;27;20107;-53
2024/01/06 04:39:59;;;;;;;11.82;6.97;;;19.30;62.90;;;;;;5132073;27;20107;-46
2024/01/06 04:42:25;;;;;;;12.02;7.32;;;19.30;62.30;;;;;;5131335;27;20023;-48
2024/01/06 04:44:51;;;;;;;13.43;7.40;;;19.30;63.10;;;;;;5128275;27;20102;-51
2024/01/06 04:47:17;;;;;;;13.88;7.35;;;19.30;62.50;;;;;;5134122;27;20054;-50
2024/01/06 04:49:44;;;;;;;15.05;7.32;;;19.30;62.20;;;;;;5132574;27;20483;-46
2024/01/06 04:52:10;;;;;;;13.27;7.28;;;19.30;63.00;;;;;;5127347;27;20031;-47
2024/01/06 04:54:36;;;;;;;14.95;7.85;;;19.30;62.40;;;;;;5133684;27;20016;-49
2024/01/06 04:57:02;;;;;;;13.02;6.88;;;19.30;62.30;;;;;;5117265;27;20364;-51
2024/01/06 04:59:27;;;;;;;13.10;7.28;;;19.30;62.70;;;;;;5129538;27;20031;-48
2024/01/06 05:01:54;;;;;;;12.82;7.20;;;19.30;62.60;;;;;;5121407;27;20019;-46
2024/01/06 05:04:19;;;;;;;12.43;7.55;;;19.30;63.00;;;;;;5113031;27;20031;-46
2024/01/06 05:06:45;;;;;;;12.00;6.95;;;19.30;62.90;;;;;;5117732;27;20023;-48
2024/01/06 05:09:11;;;;;;;12.18;7.55;;;19.30;62.90;;;;;;5116654;27;20133;-49
2024/01/06 05:11:37;;;;;;;16.58;7.57;;;19.30;62.60;;;;;;5130591;27;20500;-50
2024/01/06 05:14:02;;;;;;;13.35;7.70;;;19.30;62.30;;;;;;5132810;27;20050;-47
2024/01/06 05:16:28;;;;;;;12.98;7.50;;;19.30;62.30;;;;;;5132829;27;20323;-47
2024/01/06 05:18:54;;;;;;;12.40;7.30;;;19.30;62.40;;;;;;5126430;27;20019;-46
2024/01/06 05:21:20;;;;;;;13.10;7.55;;;19.30;62.30;;;;;;5124055;27;20023;-50
2024/01/06 05:23:46;;;;;;;15.38;7.40;;;19.30;62.50;;;;;;5131988;27;20030;-50
2024/01/06 05:26:13;;;;;;;12.43;7.65;;;19.30;62.10;;;;;;5131905;27;20108;-47
2024/01/06 05:28:40;;;;;;;14.50;7.80;;;19.20;62.40;;;;;;5131386;27;20490;-49
2024/01/06 05:31:06;;;;;;;14.98;7.60;;;19.20;63.10;;;;;;5130880;27;20023;-46
2024/01/06 05:33:31;;;;;;;18.15;8.23;;;19.20;62.00;;;;;;5142594;22;20452;-53
2024/01/06 05:35:57;;;;;;;12.80;7.40;;;19.30;62.60;;;;;;5111243;28;20039;-52
2024/01/06 05:38:23;;;;;;;12.55;7.35;;;19.30;62.30;;;;;;5109850;28;20055;-52
2024/01/06 05:40:49;;;;;;;14.60;7.90;;;19.30;62.40;;;;;;5105727;28;20020;-57
2024/01/06 05:43:14;;;;;;;13.13;7.35;;;19.20;62.50;;;;;;5106842;28;20027;-53
2024/01/06 05:45:43;;;;;;;13.30;7.22;;;19.20;62.40;;;;;;5099185;28;20016;-57
2024/01/06 05:48:10;;;;;;;18.30;7.75;;;19.20;62.20;;;;;;5105162;28;20077;-50
2024/01/06 05:50:36;;;;;;;14.48;7.60;;;19.30;62.10;;;;;;5097667;28;20027;-52
2024/01/06 05:53:02;;;;;;;15.27;7.57;;;19.30;62.40;;;;;;5098937;28;20028;-50
2024/01/06 05:55:29;;;;;;;14.10;7.93;;;19.30;62.40;;;;;;5106130;28;20047;-55
2024/01/06 05:57:54;;;;;;;15.43;7.72;;;19.20;61.80;;;;;;5099809;28;20038;-53
2024/01/06 06:00:20;;;;;;;16.75;8.15;;;19.30;61.90;;;;;;5100543;28;20483;-52
2024/01/06 06:02:46;;;;;;;12.60;7.07;;;19.30;61.60;;;;;;5105791;28;20503;-55
2024/01/06 06:05:13;;;;;;;12.70;7.32;;;19.30;62.00;;;;;;5099059;28;20025;-54
2024/01/06 06:07:39;;;;;;;14.70;7.90;;;19.30;61.90;;;;;;5103005;28;20431;-51
2024/01/06 06:10:10;;;;;;;14.27;8.07;;;19.30;61.60;;;;;;5103324;28;20118;-51
2024/01/06 06:12:36;;;;;;;16.60;8.15;;;19.30;62.00;;;;;;5095405;28;20096;-52
2024/01/06 06:15:03;;;;;;;14.60;8.13;;;19.30;61.90;;;;;;5101951;28;20466;-54
2024/01/06 06:17:30;;;;;;;14.30;8.30;;;19.30;61.60;;;;;;5100075;28;20024;-49
2024/01/06 06:19:57;;;;;;;15.27;7.95;;;19.30;61.50;;;;;;5101820;28;20527;-52
2024/01/06 06:22:23;;;;;;;14.77;7.65;;;19.30;61.40;;;;;;5099433;28;20034;-51
2024/01/06 06:24:49;;;;;;;12.82;7.85;;;19.30;61.60;;;;;;5105143;28;20031;-52
2024/01/06 06:27:15;;;;;;;14.65;7.63;;;19.30;61.60;;;;;;5101489;28;20034;-49
2024/01/06 06:29:41;;;;;;;13.55;7.43;;;19.30;61.70;;;;;;5099082;28;20028;-52
2024/01/06 06:32:07;;;;;;;13.93;8.00;;;19.30;61.70;;;;;;5099648;28;20406;-49
2024/01/06 06:34:33;;;;;;;16.73;8.43;;;19.30;61.40;;;;;;5106156;28;20470;-49
2024/01/06 06:36:59;;;;;;;14.85;8.38;;;19.30;61.30;;;;;;5106597;28;20051;-51
2024/01/06 06:39:27;;;;;;;13.57;8.45;;;19.30;61.10;;;;;;5092609;28;20036;-51
2024/01/06 06:41:52;;;;;;;15.18;7.75;;;19.30;61.30;;;;;;5102319;28;20028;-53
2024/01/06 06:44:18;;;;;;;15.32;8.55;;;19.30;61.60;;;;;;5105952;28;20043;-55
2024/01/06 06:46:44;;;;;;;13.80;8.00;;;19.30;61.10;;;;;;5099608;28;20422;-49
2024/01/06 06:49:09;;;;;;;15.35;8.75;;;19.30;61.30;;;;;;5100176;28;20402;-48
2024/01/06 06:51:35;;;;;;;14.88;8.02;;;19.30;61.40;;;;;;5101927;28;20447;-48
2024/01/06 06:54:01;;;;;;;14.90;7.90;;;19.30;61.30;;;;;;5109868;28;20395;-48
2024/01/06 06:56:27;;;;;;;15.05;8.38;;;19.30;61.40;;;;;;5100211;28;20487;-50
2024/01/06 06:58:52;;;;;;;15.60;8.05;;;19.30;61.20;;;;;;5104901;28;20050;-55
2024/01/06 07:01:18;;;;;;;13.45;8.32;;;19.30;61.20;;;;;;5099254;28;20446;-55
2024/01/06 07:03:44;;;;;;;15.95;8.70;;;19.30;61.30;;;;;;5106061;28;20107;-53
2024/01/06 07:06:14;;;;;;;15.93;8.88;;;19.30;60.70;;;;;;5099229;28;20100;-53
2024/01/06 07:08:41;;;;;;;15.63;8.55;;;19.30;61.10;;;;;;5107943;28;20019;-55
2024/01/06 07:11:08;;;;;;;14.18;8.10;;;19.30;61.20;;;;;;5109655;28;20026;-53
2024/01/06 07:13:34;;;;;;;15.90;8.45;;;19.30;61.20;;;;;;5103066;28;20398;-53
2024/01/06 07:16:00;;;;;;;14.30;8.00;;;19.30;61.10;;;;;;5103447;28;20023;-50
2024/01/06 07:18:26;;;;;;;15.50;8.43;;;19.30;61.10;;;;;;5104410;28;20032;-54
2024/01/06 07:20:51;;;;;;;15.05;7.75;;;19.30;61.20;;;;;;5114386;28;20016;-55
2024/01/06 07:23:17;;;;;;;15.05;7.70;;;19.20;61.40;;;;;;5103558;28;20063;-49
2024/01/06 07:25:43;;;;;;;13.40;8.50;;;19.20;61.30;;;;;;5103776;28;20112;-50
2024/01/06 07:28:09;;;;;;;18.02;8.25;;;19.20;61.20;;;;;;5113140;28;20027;-52
2024/01/06 07:30:34;;;;;;;16.95;7.70;;;19.20;61.50;;;;;;5106213;28;20034;-54
2024/01/06 07:33:00;;;;;;;13.70;7.97;;;19.20;61.30;;;;;;5103797;28;20123;-54
2024/01/06 07:35:26;;;;;;;16.70;8.93;;;19.20;60.70;;;;;;5112399;28;20513;-51
2024/01/06 07:37:53;;;;;;;15.75;8.45;;;19.30;60.30;;;;;;5113032;28;20020;-54
2024/01/06 07:40:19;;;;;;;15.70;8.05;;;19.30;60.70;;;;;;5101567;28;20039;-49
2024/01/06 07:42:45;;;;;;;15.07;8.32;;;19.30;60.80;;;;;;5105554;28;20104;-54
2024/01/06 07:45:11;;;;;;;14.52;8.35;;;19.30;60.70;;;;;;5104631;28;20096;-49
2024/01/06 07:47:37;;;;;;;19.13;8.40;;;19.30;60.70;;;;;;5104904;28;20027;-51
2024/01/06 07:50:05;;;;;;;14.82;8.07;;;19.30;61.20;;;;;;5102190;28;20039;-50
2024/01/06 07:52:30;;;;;;;14.80;8.45;;;19.30;60.70;;;;;;5106685;28;20497;-55
2024/01/06 07:54:56;;;;;;;16.42;8.90;;;19.30;61.10;;;;;;5104790;28;20095;-54
2024/01/06 07:57:22;;;;;;;16.58;9.00;;;19.20;60.40;;;;;;5109260;28;20499;-55
2024/01/06 07:59:48;;;;;;;20.33;8.55;;;19.30;60.50;;;;;;5103508;28;20478;-56
2024/01/06 08:02:13;;;;;;;19.15;9.13;;;19.20;60.90;;;;;;5102378;28;20023;-56
2024/01/06 08:04:39;;;;;;;15.77;8.32;;;19.20;60.50;;;;;;5104354;28;20031;-55
2024/01/06 08:07:05;;;;;;;17.02;8.20;;;19.20;60.50;;;;;;5111391;28;20043;-54
2024/01/06 08:09:31;;;;;;;16.30;8.45;;;19.30;60.70;;;;;;5101390;27;20028;-52
2024/01/06 08:11:56;;;;;;;15.82;8.77;;;19.30;60.50;;;;;;5107219;28;20024;-55
2024/01/06 08:14:22;;;;;;;17.90;8.77;;;19.20;60.30;;;;;;5104364;28;20103;-52
2024/01/06 08:16:48;;;;;;;18.15;9.10;;;19.20;60.50;;;;;;5107919;28;20023;-50
2024/01/06 08:19:14;;;;;;;15.45;8.32;;;19.20;60.00;;;;;;5101891;28;20028;-53
2024/01/06 08:21:40;;;;;;;18.20;8.93;;;19.30;60.40;;;;;;5097362;28;20023;-55
2024/01/06 08:24:06;;;;;;;16.63;8.82;;;19.20;60.40;;;;;;5109403;28;20529;-56
2024/01/06 08:26:32;;;;;;;16.50;8.77;;;19.20;60.60;;;;;;5103442;28;20027;-55
2024/01/06 08:28:57;;;;;;;17.77;9.00;;;19.20;60.40;;;;;;5104993;28;20040;-55
2024/01/06 08:31:23;;;;;;;16.92;9.40;;;19.20;60.40;;;;;;5100938;28;20023;-55
2024/01/06 08:33:49;;;;;;;17.50;8.98;;;19.20;60.70;;;;;;5101815;28;20114;-56
2024/01/06 08:36:15;;;;;;;16.40;8.30;;;19.20;60.30;;;;;;5102247;28;20032;-55
2024/01/06 08:38:40;;;;;;;16.23;8.90;;;19.20;60.10;;;;;;5109032;28;20501;-54
2024/01/06 08:41:06;;;;;;;15.95;8.68;;;19.20;60.70;;;;;;5107834;28;20027;-56
2024/01/06 08:43:32;;;;;;;16.27;8.93;;;19.20;60.90;;;;;;5104275;28;20051;-53
2024/01/06 08:45:58;;;;;;;17.40;9.10;;;19.20;60.00;;;;;;5099907;28;20020;-54
2024/01/06 08:48:24;;;;;;;15.98;9.13;;;19.20;59.70;;;;;;5103745;28;20089;-55
2024/01/06 08:50:50;;;;;;;15.98;9.05;;;19.20;59.90;;;;;;5101945;28;20089;-52
2024/01/06 08:53:16;;;;;;;16.25;8.50;;;19.20;59.80;;;;;;5103660;28;20031;-51
2024/01/06 08:55:42;;;;;;;20.52;9.13;;;19.20;59.90;;;;;;5097877;28;20491;-51
2024/01/06 08:58:08;;;;;;;22.80;9.38;;;19.20;58.90;;;;;;5109642;28;20028;-52
2024/01/06 09:00:33;;;;;;;17.73;9.20;;;19.20;60.20;;;;;;5101395;28;20403;-51
2024/01/06 09:02:59;;;;;;;26.80;9.43;;;19.20;59.20;;;;;;5099596;28;20032;-50
2024/01/06 09:05:25;;;;;;;20.98;9.52;;;19.20;59.50;;;;;;5106136;28;20028;-55
2024/01/06 09:07:51;;;;;;;18.08;10.15;;;19.20;59.30;;;;;;5100576;28;20051;-53
2024/01/06 09:10:20;;;;;;;22.75;8.48;;;19.20;59.10;;;;;;5103305;28;20092;-54
2024/01/06 09:12:46;;;;;;;18.60;9.80;;;19.20;59.60;;;;;;5102895;28;20031;-54
2024/01/06 09:15:12;;;;;;;19.25;9.85;;;19.20;59.00;;;;;;5100469;28;20024;-55
2024/01/06 09:17:37;;;;;;;16.13;9.15;;;19.20;58.70;;;;;;5098226;28;20016;-54
2024/01/06 09:20:04;;;;;;;22.35;9.85;;;19.20;58.80;;;;;;5104592;28;20496;-49
2024/01/06 09:22:30;;;;;;;18.25;9.15;;;19.20;58.70;;;;;;5104053;28;20027;-54
2024/01/06 09:24:55;;;;;;;17.60;9.43;;;19.20;59.30;;;;;;5103841;28;20032;-52
2024/01/06 09:27:21;;;;;;;22.90;9.18;;;19.20;59.10;;;;;;5102378;28;20024;-52
2024/01/06 09:29:47;;;;;;;19.73;8.98;;;19.20;59.60;;;;;;5092300;28;20024;-54
2024/01/06 09:32:13;;;;;;;16.33;9.18;;;19.20;59.20;;;;;;5091972;28;20407;-53
2024/01/06 09:34:39;;;;;;;17.20;9.20;;;19.20;58.80;;;;;;5111896;28;20031;-53
2024/01/06 09:37:04;;;;;;;17.73;9.23;;;19.20;59.60;;;;;;5112528;28;20050;-52
2024/01/06 09:39:33;;;;;;;20.45;9.27;;;19.20;59.20;;;;;;5112207;28;20077;-53
2024/01/06 09:41:59;;;;;;;17.60;9.20;;;19.20;59.80;;;;;;5101309;28;20016;-56
2024/01/06 09:44:25;;;;;;;16.80;8.70;;;19.20;58.90;;;;;;5091803;28;20020;-53
2024/01/06 09:46:51;;;;;;;16.42;9.32;;;19.20;58.90;;;;;;5106156;28;20490;-56
2024/01/06 09:49:23;;;;;;;16.65;9.55;;;19.20;58.50;;;;;;5112254;28;20069;-53
2024/01/06 09:51:51;;;;;;;19.25;9.55;;;19.20;59.20;;;;;;5109124;28;20027;-53
2024/01/06 09:54:22;;;;;;;22.73;9.95;;;19.20;58.70;;;;;;5091656;28;20020;-57
2024/01/06 09:56:49;;;;;;;17.05;8.68;;;19.20;58.30;;;;;;5091861;28;20016;-54
2024/01/06 09:59:15;;;;;;;12.85;7.72;;;19.20;58.90;;;;;;5104271;28;20034;-57
2024/01/06 10:01:41;;;;;;;19.33;9.77;;;19.20;58.60;;;;;;5110632;28;20106;-56
2024/01/06 10:04:07;;;;;;;20.58;9.85;;;19.20;58.50;;;;;;5111930;28;20431;-55
2024/01/06 10:06:33;;;;;;;17.42;9.40;;;19.20;58.60;;;;;;5111849;28;20342;-56
2024/01/06 10:08:59;;;;;;;17.55;9.73;;;19.20;58.50;;;;;;5111000;28;20053;-53
2024/01/06 10:11:26;;;;;;;21.23;8.68;;;19.20;58.70;;;;;;5111591;28;20520;-52
2024/01/06 10:13:53;;;;;;;18.00;9.57;;;19.20;58.90;;;;;;5111793;28;20027;-54
2024/01/06 10:16:20;;;;;;;18.33;9.15;;;19.20;58.40;;;;;;5097878;28;20115;-52
2024/01/06 10:18:46;;;;;;;16.73;9.18;;;19.20;58.50;;;;;;5091485;28;20024;-54
2024/01/06 10:21:13;;;;;;;17.95;9.75;;;19.20;58.30;;;;;;5090386;28;20039;-55
2024/01/06 10:23:39;;;;;;;16.77;9.65;;;19.20;58.40;;;;;;5110527;28;20047;-53
2024/01/06 10:26:05;;;;;;;18.45;9.00;;;19.20;58.30;;;;;;5111726;28;20476;-50
2024/01/06 10:28:31;;;;;;;20.20;9.20;;;19.20;58.40;;;;;;5111723;28;20028;-54
2024/01/06 10:30:58;;;;;;;19.00;9.32;;;19.20;58.60;;;;;;5108678;28;20076;-55
2024/01/06 10:33:25;;;;;;;18.70;9.30;;;19.20;58.60;;;;;;5096250;28;20028;-56
2024/01/06 10:35:53;;;;;;;18.52;9.57;;;19.20;58.20;;;;;;5099382;28;20017;-55
2024/01/06 10:38:19;;;;;;;18.23;9.65;;;19.20;57.80;;;;;;5099671;28;20028;-54
2024/01/06 10:41:00;;;;;;;15.15;8.95;;;19.20;58.10;;;;;;5102395;28;20069;-58
2024/01/06 10:43:29;;;;;;;15.93;8.85;;;19.20;58.20;;;;;;5096008;28;20035;-53
2024/01/06 10:45:57;;;;;;;20.05;9.15;;;19.20;57.80;;;;;;5094830;28;20534;-54
2024/01/06 10:48:29;;;;;;;21.38;9.63;;;19.20;58.00;;;;;;5105376;28;20433;-56
2024/01/06 10:50:55;;;;;;;18.25;9.20;;;19.20;58.30;;;;;;5096599;28;20032;-52
2024/01/06 10:53:25;;;;;;;18.38;9.15;;;19.20;58.30;;;;;;5100633;28;20089;-55
2024/01/06 10:55:52;;;;;;;16.25;8.77;;;19.20;58.70;;;;;;5105046;28;20024;-50
2024/01/06 10:58:19;;;;;;;16.73;8.93;;;19.20;58.70;;;;;;5113029;28;20031;-55
2024/01/06 11:00:45;;;;;;;17.02;9.25;;;19.20;58.60;;;;;;5111036;28;20111;-49
2024/01/06 11:03:13;;;;;;;16.30;8.60;;;19.20;58.30;;;;;;5095287;28;20035;-51
2024/01/06 11:05:41;;;;;;;17.58;9.82;;;19.20;58.90;;;;;;5095762;28;20027;-56
2024/01/06 11:08:07;;;;;;;15.27;8.88;;;19.20;58.80;;;;;;5095215;28;20085;-55
2024/01/06 11:10:36;;;;;;;14.77;8.05;;;19.20;58.80;;;;;;5110277;28;20042;-56
2024/01/06 11:13:20;;;;;;;16.30;9.38;;;19.20;58.80;;;;;;5102987;28;20129;-56
2024/01/06 11:15:52;;;;;;;15.48;8.88;;;19.20;59.10;;;;;;5094778;28;20035;-55
2024/01/06 11:18:38;;;;;;;16.40;8.70;;;19.20;59.30;;;;;;5096530;28;20432;-55
2024/01/06 11:21:24;;;;;;;17.20;8.60;;;19.20;58.20;;;;;;5102950;28;20483;-56
2024/01/06 11:24:17;;;;;;;16.27;8.27;;;19.20;59.00;;;;;;5094796;28;20114;-55
2024/01/06 11:26:45;;;;;;;15.40;8.50;;;19.20;58.80;;;;;;5094841;28;20098;-52
2024/01/06 11:29:11;;;;;;;15.63;8.45;;;19.20;58.70;;;;;;5106955;28;20020;-57
2024/01/06 11:31:37;;;;;;;17.17;9.05;;;19.20;58.40;;;;;;5106338;28;20030;-54
2024/01/06 11:34:21;;;;;;;14.27;8.75;;;19.20;58.30;;;;;;5126513;22;20105;-52
2024/01/06 11:36:50;;;;;;;20.73;8.95;;;19.20;58.10;;;;;;5095669;28;20025;-57
2024/01/06 11:39:40;;;;;;;16.70;8.90;;;19.20;58.10;;;;;;5091468;28;20027;-53
2024/01/06 11:42:10;;;;;;;17.20;8.57;;;19.30;58.10;;;;;;5093785;28;20039;-53
2024/01/06 11:44:45;;;;;;;15.65;8.95;;;19.30;58.00;;;;;;5086320;28;20020;-53
2024/01/06 11:47:12;;;;;;;16.33;8.48;;;19.30;58.00;;;;;;5094182;28;20039;-54
2024/01/06 11:49:37;;;;;;;18.13;8.48;;;19.30;58.10;;;;;;5085994;28;20027;-53
2024/01/06 11:52:04;;;;;;;16.05;8.30;;;19.30;58.40;;;;;;5093710;28;20036;-55
2024/01/06 11:54:31;;;;;;;15.75;8.85;;;19.30;58.40;;;;;;5093788;28;20020;-51
2024/01/06 11:56:57;;;;;;;21.02;9.65;;;19.20;58.70;;;;;;5093044;28;20036;-55
2024/01/06 11:59:23;;;;;;;14.68;8.15;;;19.20;58.60;;;;;;5089222;28;20095;-53
2024/01/06 12:01:49;;;;;;;14.68;8.38;;;19.20;58.70;;;;;;5093163;28;20111;-50
2024/01/06 12:04:15;;;;;;;13.10;7.65;;;19.20;58.50;;;;;;5093584;28;20035;-49
2024/01/06 12:06:41;;;;;;;20.50;8.40;;;19.20;58.40;;;;;;5093811;28;20024;-48
2024/01/06 12:09:10;;;;;;;19.13;10.18;;;19.20;58.40;;;;;;5093690;28;20032;-53
2024/01/06 12:11:39;;;;;;;25.00;15.68;;;19.20;57.60;;;;;;5093225;28;20069;-55
2024/01/06 12:14:06;;;;;;;24.45;16.25;;;19.00;50.80;;;;;;5093381;28;20024;-54
2024/01/06 12:16:32;;;;;;;23.23;16.00;;;18.70;46.90;;;;;;5093556;28;20028;-51
2024/01/06 12:19:00;;;;;;;29.88;16.02;;;18.60;46.10;;;;;;5084290;28;20133;-51
2024/01/06 12:21:27;;;;;;;23.58;14.45;;;18.50;47.00;;;;;;5089461;28;20024;-50
2024/01/06 12:23:53;;;;;;;22.27;14.63;;;18.60;46.60;;;;;;5093407;28;20016;-55
2024/01/06 12:26:19;;;;;;;21.10;12.98;;;18.70;48.70;;;;;;5093374;28;20020;-53
2024/01/06 12:28:46;;;;;;;24.38;14.27;;;18.80;50.30;;;;;;5093339;28;20031;-50
2024/01/06 12:31:12;;;;;;;26.10;12.48;;;18.90;51.90;;;;;;5092988;28;20096;-54
2024/01/06 12:33:40;;;;;;;24.98;13.57;;;19.00;52.60;;;;;;5084857;28;20479;-55